| time (UTC) | temp F | wind direction | speed MPH | gust MPH | rain 1hr in | rain 24hr in | rain mn in | humidity % | barometer mb |
| 20260831203003 | 86 | 280 | 5.0 | 0.0 | 0.00 | 0.00 | 0.00 | 23 | 1017.0 |
| 20260831201503 | 86 | 280 | 5.0 | 0.0 | 0.00 | 0.00 | 0.00 | 23 | 1017.0 |
| 20260831200004 | 86 | 310 | 5.0 | 0.0 | 0.00 | 0.00 | 0.00 | 22 | 1017.0 |
| 20260831194503 | 86 | 310 | 5.0 | 0.0 | 0.00 | 0.00 | 0.00 | 22 | 1017.0 |
| 20260831193004 | 90 | 280 | 6.0 | 0.0 | 0.00 | 0.00 | 0.00 | 19 | 1017.0 |
| 20260831184503 | 91 | 270 | 6.0 | 0.0 | 0.00 | 0.00 | 0.00 | 18 | 1017.0 |
| 20260831183004 | 91 | 270 | 6.0 | 0.0 | 0.00 | 0.00 | 0.00 | 18 | 1017.0 |
| 20260831180004 | 91 | 220 | 7.0 | 0.0 | 0.00 | 0.00 | 0.00 | 18 | 1017.0 |
| 20260831174503 | 91 | 220 | 7.0 | 0.0 | 0.00 | 0.00 | 0.00 | 18 | 1017.0 |
| 20260831170003 | 91 | 240 | 8.0 | 0.0 | 0.00 | 0.00 | 0.00 | 19 | 1018.0 |
| 20260831164503 | 91 | 240 | 8.0 | 0.0 | 0.00 | 0.00 | 0.00 | 19 | 1018.0 |
| 20260831161504 | 91 | 220 | 7.0 | 0.0 | 0.00 | 0.00 | 0.00 | 19 | 1018.0 |
| 20260831154503 | 91 | 230 | 8.0 | 0.0 | 0.00 | 0.00 | 0.00 | 19 | 1018.0 |
| 20260831151503 | 91 | 220 | 8.0 | 0.0 | 0.00 | 0.00 | 0.00 | 21 | 1018.0 |
| 20260831144503 | 90 | 250 | 7.0 | 0.0 | 0.00 | 0.00 | 0.00 | 21 | 1019.0 |
| 20260831143004 | 90 | 250 | 7.0 | 0.0 | 0.00 | 0.00 | 0.00 | 22 | 1019.0 |
| 20260831141503 | 90 | 250 | 7.0 | 0.0 | 0.00 | 0.00 | 0.00 | 22 | 1019.0 |
| 20260831140003 | 90 | 200 | 8.0 | 0.0 | 0.00 | 0.00 | 0.00 | 22 | 1019.0 |
| 20260831134503 | 90 | 200 | 8.0 | 0.0 | 0.00 | 0.00 | 0.00 | 22 | 1019.0 |
| 20260831133003 | 88 | 260 | 8.0 | 0.0 | 0.00 | 0.00 | 0.00 | 23 | 1019.0 |
| 20260831131503 | 88 | 260 | 8.0 | 0.0 | 0.00 | 0.00 | 0.00 | 23 | 1019.0 |
| 20260831130004 | 88 | 220 | 6.0 | 0.0 | 0.00 | 0.00 | 0.00 | 23 | 1020.0 |
| 20260831123003 | 86 | 210 | 5.0 | 0.0 | 0.00 | 0.00 | 0.00 | 25 | 1020.0 |
| 20260831120004 | 86 | 160 | 2.0 | 0.0 | 0.00 | 0.00 | 0.00 | 23 | 1020.0 |
| 20260831111503 | 82 | 180 | 5.0 | 0.0 | 0.00 | 0.00 | 0.00 | 28 | 1020.0 |
| 20260831103003 | 81 | 340 | 2.0 | 0.0 | 0.00 | 0.00 | 0.00 | 28 | 1021.0 |
| 20260831101503 | 81 | 340 | 2.0 | 0.0 | 0.00 | 0.00 | 0.00 | 28 | 1021.0 |
| 20260831100004 | 77 | 40 | 2.0 | 0.0 | 0.00 | 0.00 | 0.00 | 31 | 1020.0 |
| 20260831094503 | 77 | 40 | 2.0 | 0.0 | 0.00 | 0.00 | 0.00 | 31 | 1020.0 |
| 20260831093004 | 73 | 320 | 3.0 | 0.0 | 0.00 | 0.00 | 0.00 | 38 | 1020.0 |
| 20260831084503 | 70 | 340 | 5.0 | 0.0 | 0.00 | 0.00 | 0.00 | 43 | 1020.0 |
| 20260831081503 | 66 | 0 | 2.0 | 0.0 | 0.00 | 0.00 | 0.00 | 52 | 1020.0 |
| 20260831080004 | 64 | 350 | 3.0 | 0.0 | 0.00 | 0.00 | 0.00 | 55 | 1020.0 |
| 20260831074503 | 64 | 350 | 3.0 | 0.0 | 0.00 | 0.00 | 0.00 | 55 | 1020.0 |
| 20260831073004 | 63 | 0 | 2.0 | 0.0 | 0.00 | 0.00 | 0.00 | 59 | 1020.0 |
| 20260831070003 | 61 | 340 | 3.0 | 0.0 | 0.00 | 0.00 | 0.00 | 63 | 1020.0 |
| 20260831064504 | 61 | 340 | 3.0 | 0.0 | 0.00 | 0.00 | 0.00 | 63 | 1020.0 |
| 20260831063003 | 61 | 0 | 2.0 | 0.0 | 0.00 | 0.00 | 0.00 | 63 | 1020.0 |
| 20260831061503 | 61 | 0 | 2.0 | 0.0 | 0.00 | 0.00 | 0.00 | 63 | 1020.0 |
| 20260831060004 | 63 | 20 | 1.0 | 0.0 | 0.00 | 0.00 | 0.00 | 59 | 1019.0 |
| 20260831054503 | 63 | 20 | 1.0 | 0.0 | 0.00 | 0.00 | 0.00 | 59 | 1019.0 |
| 20260831051503 | 64 | 360 | 5.0 | 0.0 | 0.00 | 0.00 | 0.00 | 55 | 1019.0 |
| 20260831050003 | 64 | 350 | 7.0 | 0.0 | 0.00 | 0.00 | 0.00 | 55 | 1019.0 |
| 20260831043003 | 64 | 10 | 3.0 | 0.0 | 0.00 | 0.00 | 0.00 | 55 | 1019.0 |
| 20260831040003 | 64 | 20 | 2.0 | 0.0 | 0.00 | 0.00 | 0.00 | 55 | 1019.0 |
| 20260831034502 | 64 | 20 | 2.0 | 0.0 | 0.00 | 0.00 | 0.00 | 55 | 1019.0 |
| 20260831031502 | 66 | 0 | 2.0 | 0.0 | 0.00 | 0.00 | 0.00 | 52 | 1019.0 |
| 20260831030004 | 66 | 10 | 3.0 | 0.0 | 0.00 | 0.00 | 0.00 | 52 | 1019.0 |
| 20260831021503 | 68 | 30 | 3.0 | 0.0 | 0.00 | 0.00 | 0.00 | 49 | 1019.0 |
| 20260831020003 | 72 | 340 | 5.0 | 0.0 | 0.00 | 0.00 | 0.00 | 43 | 1019.0 |
| 20260831014503 | 72 | 340 | 5.0 | 0.0 | 0.00 | 0.00 | 0.00 | 43 | 1019.0 |
| 20260831013003 | 73 | 0 | 2.0 | 0.0 | 0.00 | 0.00 | 0.00 | 40 | 1019.0 |
| 20260831011504 | 73 | 0 | 2.0 | 0.0 | 0.00 | 0.00 | 0.00 | 40 | 1019.0 |
| 20260831004503 | 72 | 80 | 2.0 | 0.0 | 0.00 | 0.00 | 0.00 | 43 | 1019.0 |
| 20260831000004 | 75 | 70 | 2.0 | 0.0 | 0.00 | 0.00 | 0.00 | 38 | 1019.0 |
| 20260830234504 | 75 | 70 | 2.0 | 0.0 | 0.00 | 0.00 | 0.00 | 38 | 1019.0 |
| 20260830231503 | 77 | 40 | 1.0 | 0.0 | 0.00 | 0.00 | 0.00 | 36 | 1018.0 |
| 20260830224504 | 77 | 350 | 3.0 | 0.0 | 0.00 | 0.00 | 0.00 | 33 | 1018.0 |
| 20260830221503 | 79 | 0 | 2.0 | 0.0 | 0.00 | 0.00 | 0.00 | 34 | 1018.0 |
| 20260830220004 | 81 | 230 | 5.0 | 0.0 | 0.00 | 0.00 | 0.00 | 32 | 1018.0 |
| 20260830213003 | 82 | 240 | 7.0 | 0.0 | 0.00 | 0.00 | 0.00 | 28 | 1018.0 |
| 20260830211503 | 82 | 240 | 7.0 | 0.0 | 0.00 | 0.00 | 0.00 | 28 | 1018.0 |
| 20260830210004 | 84 | 230 | 9.0 | 0.0 | 0.00 | 0.00 | 0.00 | 25 | 1017.0 |